< < Back
Terminal Aerodrome Forecast


Current Version              Previous Versions:   1  2  3  4  5  6  7  8  9  

Terminal Aerodrome Forecast

696
FTUS42 KMLB 311511 AAA
TAFDAB
TAF AMD
KDAB 311511Z 3115/0112 22008KT P6SM VCTS SCT025CB BKN035 BKN150
      TEMPO 3115/3118 3SM TSRA BKN035CB
     FM010000 21006KT P6SM VCSH FEW025 BKN150 BKN250=

Latest METAR

640
SAUS80 KWBC 311500 RRA
MTRDAB
METAR KDAB 311453Z 24007KT 10SM SCT022 BKN035 BKN150 31/24 A3000 RMK AO2
SLP158 T03060239 51005


USA.gov is the U.S. government's official web portal to all federal, state and local government web resources and services.